createdAt,value
2018-05-31T00:00:49.036Z,26.80
2018-05-31T00:03:16.479Z,26.80
2018-05-31T00:05:43.951Z,26.80
2018-05-31T00:08:11.387Z,26.80
2018-05-31T00:10:38.843Z,26.80
2018-05-31T00:13:06.304Z,26.90
2018-05-31T00:15:33.863Z,26.80
2018-05-31T00:18:01.330Z,26.80
2018-05-31T00:20:28.783Z,26.90
2018-05-31T00:22:56.226Z,26.80
2018-05-31T00:25:23.683Z,26.80
2018-05-31T00:27:51.131Z,26.80
2018-05-31T00:30:18.588Z,26.60
2018-05-31T00:32:46.040Z,26.50
2018-05-31T00:35:13.496Z,26.40
2018-05-31T00:37:40.948Z,26.50
2018-05-31T00:40:08.417Z,26.50
2018-05-31T00:42:35.873Z,26.40
2018-05-31T00:45:03.333Z,26.30
2018-05-31T00:47:30.778Z,26.40
2018-05-31T00:49:58.230Z,26.50
2018-05-31T00:52:25.679Z,26.50
2018-05-31T00:54:53.158Z,26.60
2018-05-31T00:57:20.723Z,26.70
2018-05-31T00:59:48.171Z,26.70
2018-05-31T01:02:15.729Z,26.60
2018-05-31T01:04:43.352Z,26.40
2018-05-31T01:07:10.834Z,26.40
2018-05-31T01:09:38.295Z,26.30
2018-05-31T01:12:05.851Z,26.20
2018-05-31T01:14:33.312Z,26.10
2018-05-31T01:17:00.863Z,26.20
2018-05-31T01:19:28.319Z,26.30
2018-05-31T01:21:55.886Z,26.30
2018-05-31T01:24:23.338Z,26.30
2018-05-31T01:26:50.903Z,26.30
2018-05-31T01:29:18.348Z,26.30
2018-05-31T01:31:45.800Z,26.30
2018-05-31T01:34:13.256Z,26.40
2018-05-31T01:36:40.706Z,26.40
2018-05-31T01:39:14.212Z,26.50
2018-05-31T01:41:41.776Z,26.60
2018-05-31T01:44:09.218Z,26.60
2018-05-31T01:46:36.666Z,26.60
2018-05-31T01:49:04.411Z,26.70
2018-05-31T01:51:31.901Z,26.60
2018-05-31T01:53:59.351Z,26.60
2018-05-31T01:56:26.824Z,26.60
2018-05-31T01:58:54.297Z,26.60
2018-05-31T02:01:22.540Z,26.50
2018-05-31T02:03:49.986Z,26.50
2018-05-31T02:06:17.456Z,26.50
2018-05-31T02:08:44.908Z,26.50
2018-05-31T02:11:12.370Z,26.60
2018-05-31T02:13:39.823Z,26.70
2018-05-31T02:16:07.288Z,26.70
2018-05-31T02:18:34.832Z,26.60
2018-05-31T02:21:02.399Z,26.50
2018-05-31T02:23:29.847Z,26.50
2018-05-31T02:25:57.299Z,26.60
2018-05-31T02:28:24.743Z,26.60
2018-05-31T02:30:52.203Z,26.60
2018-05-31T02:33:19.672Z,26.60
2018-05-31T02:35:47.226Z,26.60
2018-05-31T02:38:14.679Z,26.50
2018-05-31T02:40:42.245Z,26.50
2018-05-31T02:43:09.799Z,26.50
2018-05-31T02:45:37.352Z,26.40
2018-05-31T02:48:04.820Z,26.30
2018-05-31T02:50:32.375Z,26.30
2018-05-31T02:52:59.847Z,26.40
2018-05-31T02:55:27.302Z,26.40
2018-05-31T02:57:54.750Z,26.40
2018-05-31T03:00:22.199Z,26.50
2018-05-31T03:02:49.754Z,26.60
2018-05-31T03:05:17.384Z,26.70
2018-05-31T03:07:44.903Z,26.70
2018-05-31T03:10:13.111Z,26.70
2018-05-31T03:12:40.605Z,26.70
2018-05-31T03:15:08.227Z,26.70
2018-05-31T03:17:35.718Z,26.70
2018-05-31T03:20:03.162Z,26.70
2018-05-31T03:22:30.619Z,26.70
2018-05-31T03:24:58.067Z,26.80
2018-05-31T03:27:25.539Z,26.70
2018-05-31T03:29:52.988Z,26.70
2018-05-31T03:32:20.450Z,26.60
2018-05-31T03:34:47.899Z,26.60
2018-05-31T03:37:15.358Z,26.60
2018-05-31T03:39:42.816Z,26.60
2018-05-31T03:42:10.285Z,26.60
2018-05-31T03:44:37.827Z,26.50
2018-05-31T03:47:05.982Z,26.30
2018-05-31T03:49:33.454Z,26.10
2018-05-31T03:52:01.016Z,25.90
2018-05-31T03:54:28.575Z,25.90
2018-05-31T03:56:56.278Z,26.00
2018-05-31T03:59:23.728Z,26.00
2018-05-31T04:01:51.967Z,26.10
2018-05-31T04:04:19.526Z,26.10
2018-05-31T04:06:47.179Z,26.00
2018-05-31T04:09:14.651Z,25.80
2018-05-31T04:11:42.145Z,25.80
2018-05-31T04:14:10.555Z,25.80
2018-05-31T04:16:38.004Z,25.70
2018-05-31T04:19:05.449Z,25.70
2018-05-31T04:21:33.478Z,25.80
2018-05-31T04:24:01.727Z,26.00
2018-05-31T04:26:29.260Z,26.00
2018-05-31T04:28:56.709Z,26.20
2018-05-31T04:31:24.170Z,26.20
2018-05-31T04:33:51.648Z,26.20
2018-05-31T04:36:19.207Z,26.30
2018-05-31T04:38:46.763Z,26.30
2018-05-31T04:41:14.224Z,26.10
2018-05-31T04:43:41.676Z,26.10
2018-05-31T04:46:09.240Z,26.20
2018-05-31T04:48:36.688Z,26.30
2018-05-31T04:51:04.162Z,26.30
2018-05-31T04:53:32.048Z,26.30
2018-05-31T04:55:59.438Z,26.30
2018-05-31T04:58:26.892Z,26.30
2018-05-31T05:00:54.339Z,26.30
2018-05-31T05:03:21.843Z,26.30
2018-05-31T05:05:49.292Z,26.30
2018-05-31T05:08:16.749Z,26.40
2018-05-31T05:10:44.206Z,26.40
2018-05-31T05:13:11.668Z,26.50
2018-05-31T05:15:39.215Z,26.60
2018-05-31T05:18:06.666Z,26.60
2018-05-31T05:20:34.119Z,26.70
2018-05-31T05:23:01.588Z,26.70
2018-05-31T05:25:29.039Z,26.80
2018-05-31T05:27:56.594Z,26.80
2018-05-31T05:30:24.044Z,26.80
2018-05-31T05:32:51.516Z,26.80
2018-05-31T05:35:18.960Z,26.90
2018-05-31T05:37:46.411Z,26.90
2018-05-31T05:40:13.855Z,26.90
2018-05-31T05:42:41.316Z,26.90
2018-05-31T05:45:08.767Z,27.00
2018-05-31T05:47:36.222Z,27.00
2018-05-31T05:50:03.688Z,26.90
2018-05-31T05:52:31.155Z,27.00
2018-05-31T05:54:58.892Z,27.00
2018-05-31T05:57:26.345Z,27.00
2018-05-31T05:59:53.800Z,27.00
2018-05-31T06:02:21.291Z,27.00
2018-05-31T06:04:48.850Z,27.00
2018-05-31T06:07:16.295Z,27.00
2018-05-31T06:09:43.747Z,27.10
2018-05-31T06:12:11.196Z,27.10
2018-05-31T06:14:38.651Z,27.10
2018-05-31T06:17:06.105Z,27.10
2018-05-31T06:19:33.587Z,27.10
2018-05-31T06:22:01.033Z,27.10
2018-05-31T06:24:28.548Z,27.10
2018-05-31T06:26:56.334Z,27.10
2018-05-31T06:29:23.812Z,27.10
2018-05-31T06:31:51.263Z,27.10
2018-05-31T06:34:18.733Z,27.10
2018-05-31T06:36:46.188Z,27.10
2018-05-31T06:39:14.019Z,27.10
2018-05-31T06:41:41.467Z,27.10
2018-05-31T06:44:08.919Z,27.10
2018-05-31T06:46:36.367Z,27.10
2018-05-31T06:49:03.886Z,27.10
2018-05-31T06:51:31.319Z,27.10
2018-05-31T06:53:58.771Z,27.10
2018-05-31T06:56:26.239Z,27.10
2018-05-31T06:58:53.700Z,27.10
2018-05-31T07:01:21.256Z,27.10
2018-05-31T07:03:48.712Z,27.20
2018-05-31T07:06:16.165Z,27.10
2018-05-31T07:08:43.629Z,27.10
2018-05-31T07:11:11.076Z,27.10
2018-05-31T07:13:38.540Z,27.10
2018-05-31T07:16:06.095Z,27.10
2018-05-31T07:18:33.559Z,27.10
2018-05-31T07:21:01.011Z,27.20
2018-05-31T07:23:28.467Z,27.10
2018-05-31T07:25:55.920Z,27.10
2018-05-31T07:28:23.380Z,27.20
2018-05-31T07:30:50.823Z,27.20
2018-05-31T07:33:18.291Z,27.10
2018-05-31T07:35:45.839Z,27.10
2018-05-31T07:38:13.291Z,27.10
2018-05-31T07:40:40.774Z,27.10
2018-05-31T07:43:08.207Z,27.10
2018-05-31T07:45:35.771Z,27.10
2018-05-31T07:48:03.210Z,27.10
2018-05-31T07:50:30.675Z,27.10
2018-05-31T07:52:58.127Z,27.10
2018-05-31T07:55:25.598Z,27.10
2018-05-31T07:57:53.147Z,27.10
2018-05-31T08:00:20.605Z,27.20
2018-05-31T08:02:48.047Z,27.10
2018-05-31T08:05:15.514Z,27.10
2018-05-31T08:07:42.967Z,27.20
2018-05-31T08:10:10.532Z,27.20
2018-05-31T08:12:37.983Z,27.20
2018-05-31T08:15:05.543Z,27.20
2018-05-31T08:17:32.991Z,27.20
2018-05-31T08:20:00.438Z,27.20
2018-05-31T08:22:27.883Z,27.20
2018-05-31T08:24:55.375Z,27.20
2018-05-31T08:27:22.923Z,27.20
2018-05-31T08:29:50.486Z,27.20
2018-05-31T08:32:18.043Z,27.20
2018-05-31T08:34:46.116Z,27.20
2018-05-31T08:37:13.944Z,27.20
2018-05-31T08:39:41.427Z,27.20
2018-05-31T08:42:08.881Z,27.20
2018-05-31T08:44:36.458Z,27.20
2018-05-31T08:47:04.006Z,27.20
2018-05-31T08:49:31.464Z,27.20
2018-05-31T08:51:59.019Z,27.20
2018-05-31T08:54:26.471Z,27.20
2018-05-31T08:56:53.927Z,27.20
2018-05-31T08:59:21.384Z,27.20
2018-05-31T09:01:48.846Z,27.20
2018-05-31T09:04:16.302Z,27.20
2018-05-31T09:06:43.855Z,27.30
2018-05-31T09:09:11.324Z,27.30
2018-05-31T09:11:39.142Z,27.30
2018-05-31T09:14:06.636Z,27.30
2018-05-31T09:16:34.463Z,27.30
2018-05-31T09:19:01.956Z,27.30
2018-05-31T09:21:29.511Z,27.30
2018-05-31T09:23:57.068Z,27.30
2018-05-31T09:26:24.625Z,27.30
2018-05-31T09:28:52.093Z,27.30
2018-05-31T09:31:19.523Z,27.40
2018-05-31T09:33:46.972Z,27.40
2018-05-31T09:36:14.443Z,27.40
2018-05-31T09:38:41.900Z,27.40
2018-05-31T09:41:09.458Z,27.40
2018-05-31T09:43:36.910Z,27.40
2018-05-31T09:46:04.370Z,27.40
2018-05-31T09:48:31.827Z,27.40
2018-05-31T09:50:59.279Z,27.40
2018-05-31T09:53:26.728Z,27.40
2018-05-31T09:55:54.185Z,27.40
2018-05-31T09:58:21.650Z,27.40
2018-05-31T10:00:49.208Z,27.40
2018-05-31T10:03:16.655Z,27.40
2018-05-31T10:05:44.115Z,27.40
2018-05-31T10:08:11.559Z,27.40
2018-05-31T10:10:39.028Z,27.40
2018-05-31T10:13:06.475Z,27.40
2018-05-31T10:15:33.942Z,27.50
2018-05-31T10:18:01.495Z,27.40
2018-05-31T10:20:29.875Z,27.50
2018-05-31T10:22:57.336Z,27.50
2018-05-31T10:25:24.783Z,27.50
2018-05-31T10:27:52.238Z,27.50
2018-05-31T10:30:20.077Z,27.50
2018-05-31T10:32:47.560Z,27.50
2018-05-31T10:35:15.012Z,27.50
2018-05-31T10:37:42.475Z,27.50
2018-05-31T10:40:10.031Z,27.50
2018-05-31T10:42:37.475Z,27.50
2018-05-31T10:45:04.939Z,27.50
2018-05-31T10:47:32.392Z,27.50
2018-05-31T10:49:59.851Z,27.50
2018-05-31T10:52:27.482Z,27.50
2018-05-31T10:54:54.972Z,27.50
2018-05-31T10:57:22.526Z,27.50
2018-05-31T10:59:49.972Z,27.60
2018-05-31T11:02:17.427Z,27.60
2018-05-31T11:04:44.875Z,27.60
2018-05-31T11:07:12.335Z,27.60
2018-05-31T11:09:39.803Z,27.60
2018-05-31T11:12:07.368Z,27.60
2018-05-31T11:14:34.812Z,27.60
2018-05-31T11:17:02.376Z,27.60
2018-05-31T11:19:29.819Z,27.70
2018-05-31T11:21:57.275Z,27.70
2018-05-31T11:24:24.740Z,27.70
2018-05-31T11:26:52.300Z,27.70
2018-05-31T11:29:19.777Z,27.70
2018-05-31T11:31:47.210Z,27.70
2018-05-31T11:34:14.668Z,27.70
2018-05-31T11:36:42.131Z,27.70
2018-05-31T11:39:09.679Z,27.60
2018-05-31T11:41:37.243Z,27.60
2018-05-31T11:44:04.685Z,27.70
2018-05-31T11:46:32.139Z,27.70
2018-05-31T11:48:59.607Z,27.70
2018-05-31T11:51:27.059Z,27.70
2018-05-31T11:53:54.516Z,27.70
2018-05-31T11:56:22.014Z,27.70
2018-05-31T11:58:49.531Z,27.70
2018-05-31T12:01:16.988Z,27.70
2018-05-31T12:03:44.550Z,27.70
2018-05-31T12:06:11.991Z,27.70
2018-05-31T12:08:39.454Z,27.70
2018-05-31T12:11:07.011Z,27.70
2018-05-31T12:13:34.459Z,27.80
2018-05-31T12:16:01.915Z,27.80
2018-05-31T12:18:29.358Z,27.70
2018-05-31T12:20:56.831Z,27.70
2018-05-31T12:23:24.287Z,27.80
2018-05-31T12:25:51.735Z,27.80
2018-05-31T12:28:19.303Z,27.80
2018-05-31T12:30:46.752Z,27.80
2018-05-31T12:33:14.316Z,27.90
2018-05-31T12:35:41.867Z,27.90
2018-05-31T12:38:09.323Z,27.90
2018-05-31T12:40:37.055Z,27.90
2018-05-31T12:43:04.519Z,27.90
2018-05-31T12:45:31.964Z,27.90
2018-05-31T12:47:59.416Z,27.90
2018-05-31T12:50:26.910Z,27.90
2018-05-31T12:52:54.362Z,27.90
2018-05-31T12:55:21.821Z,27.90
2018-05-31T12:57:49.271Z,27.90
2018-05-31T13:00:16.722Z,27.90
2018-05-31T13:02:44.183Z,27.90
2018-05-31T13:05:11.713Z,27.90
2018-05-31T13:07:39.211Z,27.90
2018-05-31T13:10:06.655Z,27.90
2018-05-31T13:12:34.387Z,27.90
2018-05-31T13:15:01.875Z,27.90
2018-05-31T13:17:29.434Z,27.90
2018-05-31T13:19:56.878Z,27.90
2018-05-31T13:22:24.347Z,27.90
2018-05-31T13:24:51.792Z,27.90
2018-05-31T13:27:19.247Z,27.90
2018-05-31T13:29:46.707Z,27.90
2018-05-31T13:32:14.263Z,28.00
2018-05-31T13:34:41.735Z,28.00
2018-05-31T13:37:09.175Z,28.00
2018-05-31T13:39:36.636Z,28.00
2018-05-31T13:42:04.190Z,28.00
2018-05-31T13:44:31.752Z,28.00
2018-05-31T13:46:59.302Z,28.00
2018-05-31T13:49:26.759Z,28.10
2018-05-31T13:51:54.331Z,28.00
2018-05-31T13:54:21.895Z,28.10
2018-05-31T13:56:49.506Z,28.10
2018-05-31T13:59:16.991Z,28.10
2018-05-31T14:01:44.555Z,28.10
2018-05-31T14:04:12.102Z,28.10
2018-05-31T14:06:39.563Z,28.10
2018-05-31T14:09:07.020Z,28.10
2018-05-31T14:11:34.468Z,28.10
2018-05-31T14:14:01.937Z,28.10
2018-05-31T14:16:29.495Z,28.10
2018-05-31T14:18:57.219Z,28.10
2018-05-31T14:21:24.672Z,28.10
2018-05-31T14:23:52.131Z,28.10
2018-05-31T14:26:19.592Z,28.10
2018-05-31T14:28:47.079Z,28.10
2018-05-31T14:31:14.526Z,28.10
2018-05-31T14:33:41.987Z,28.20
2018-05-31T14:36:09.544Z,28.20
2018-05-31T14:38:37.105Z,28.20
2018-05-31T14:41:04.652Z,28.30
2018-05-31T14:43:32.492Z,28.30
2018-05-31T14:45:59.974Z,28.20
2018-05-31T14:48:27.536Z,28.30
2018-05-31T14:50:54.975Z,28.20
2018-05-31T14:53:22.445Z,28.20
2018-05-31T14:55:50.279Z,28.20
2018-05-31T14:58:17.732Z,28.20
2018-05-31T15:00:45.184Z,28.20
2018-05-31T15:03:12.643Z,28.20
2018-05-31T15:05:40.126Z,28.30
2018-05-31T15:08:07.691Z,28.30
2018-05-31T15:10:35.419Z,28.30
2018-05-31T15:13:02.885Z,28.30
2018-05-31T15:15:30.331Z,28.20
2018-05-31T15:17:57.828Z,28.20
2018-05-31T15:20:25.270Z,28.20
2018-05-31T15:22:52.723Z,28.20
2018-05-31T15:25:20.178Z,28.20
2018-05-31T15:27:47.743Z,28.20
2018-05-31T15:30:15.191Z,28.20
2018-05-31T15:32:42.724Z,28.20
2018-05-31T15:35:10.156Z,28.20
2018-05-31T15:37:38.371Z,28.20
2018-05-31T15:40:05.840Z,28.10
2018-05-31T15:42:33.395Z,28.20
2018-05-31T15:45:00.856Z,28.20
2018-05-31T15:47:28.307Z,28.20
2018-05-31T15:49:55.863Z,28.20
2018-05-31T15:52:23.324Z,28.20
2018-05-31T15:54:50.787Z,28.20
2018-05-31T15:57:18.235Z,28.10
2018-05-31T15:59:45.802Z,28.20
2018-05-31T16:02:13.769Z,28.20
2018-05-31T16:04:41.315Z,28.20
2018-05-31T16:07:08.768Z,28.10
2018-05-31T16:09:36.243Z,28.20
2018-05-31T16:12:03.691Z,28.20
2018-05-31T16:14:31.241Z,28.20
2018-05-31T16:16:58.691Z,28.20
2018-05-31T16:19:26.251Z,28.20
2018-05-31T16:21:53.695Z,28.10
2018-05-31T16:24:21.163Z,28.20
2018-05-31T16:26:48.723Z,28.20
2018-05-31T16:29:16.283Z,28.20
2018-05-31T16:31:43.831Z,28.20
2018-05-31T16:34:11.292Z,28.20
2018-05-31T16:36:38.739Z,28.10
2018-05-31T16:39:06.193Z,28.10
2018-05-31T16:41:33.656Z,28.20
2018-05-31T16:44:01.219Z,28.20
2018-05-31T16:46:28.659Z,28.20
2018-05-31T16:48:56.123Z,28.20
2018-05-31T16:51:23.567Z,28.20
2018-05-31T16:53:51.031Z,28.20
2018-05-31T16:56:18.478Z,28.20
2018-05-31T16:58:45.943Z,28.20
2018-05-31T17:01:13.391Z,28.10
2018-05-31T17:03:40.858Z,28.20
2018-05-31T17:06:08.303Z,28.10
2018-05-31T17:08:35.763Z,28.10
2018-05-31T17:11:03.227Z,28.20
2018-05-31T17:13:30.682Z,28.10
2018-05-31T17:15:58.127Z,28.10
2018-05-31T17:18:25.592Z,28.10
2018-05-31T17:20:53.147Z,28.20
2018-05-31T17:23:20.598Z,28.20
2018-05-31T17:25:48.168Z,28.10
2018-05-31T17:28:15.723Z,28.10
2018-05-31T17:30:43.271Z,28.20
2018-05-31T17:33:10.719Z,28.10
2018-05-31T17:35:38.175Z,28.10
2018-05-31T17:38:05.620Z,28.20
2018-05-31T17:40:33.100Z,28.10
2018-05-31T17:43:00.713Z,28.10
2018-05-31T17:45:28.217Z,28.10
2018-05-31T17:47:55.667Z,28.00
2018-05-31T17:50:23.222Z,28.00
2018-05-31T17:52:50.673Z,28.00
2018-05-31T17:55:18.281Z,28.00
2018-05-31T17:57:45.694Z,28.10
2018-05-31T18:00:13.151Z,28.00
2018-05-31T18:02:40.711Z,28.00
2018-05-31T18:05:08.163Z,28.10
2018-05-31T18:07:35.625Z,28.10
2018-05-31T18:10:03.079Z,28.10
2018-05-31T18:12:30.527Z,28.00
2018-05-31T18:14:58.088Z,28.00
2018-05-31T18:17:25.638Z,28.00
2018-05-31T18:19:53.099Z,28.00
2018-05-31T18:22:20.559Z,28.00
2018-05-31T18:24:48.288Z,28.00
2018-05-31T18:27:15.775Z,28.00
2018-05-31T18:29:43.236Z,28.00
2018-05-31T18:32:10.683Z,28.00
2018-05-31T18:34:38.297Z,28.00
2018-05-31T18:37:05.709Z,27.90
2018-05-31T18:39:33.167Z,27.90
2018-05-31T18:42:00.616Z,28.00
2018-05-31T18:44:28.071Z,28.00
2018-05-31T18:46:57.040Z,28.00
2018-05-31T18:49:24.512Z,28.00
2018-05-31T18:51:51.963Z,28.00
2018-05-31T18:54:19.523Z,28.00
2018-05-31T18:56:46.980Z,27.90
2018-05-31T18:59:14.542Z,27.90
2018-05-31T19:01:42.099Z,27.90
2018-05-31T19:04:09.544Z,27.90
2018-05-31T19:06:37.410Z,27.90
2018-05-31T19:09:05.568Z,27.90
2018-05-31T19:11:33.048Z,27.90
2018-05-31T19:14:00.495Z,27.90
2018-05-31T19:16:27.955Z,27.80
2018-05-31T19:19:01.074Z,27.80
2018-05-31T19:21:29.301Z,27.80
2018-05-31T19:23:56.748Z,27.80
2018-05-31T19:26:24.235Z,27.80
2018-05-31T19:28:51.782Z,27.80
2018-05-31T19:31:19.239Z,27.80
2018-05-31T19:33:46.687Z,27.80
2018-05-31T19:36:19.911Z,27.80
2018-05-31T19:38:48.120Z,27.80
2018-05-31T19:41:15.581Z,27.80
2018-05-31T19:43:48.598Z,27.80
2018-05-31T19:46:16.061Z,27.80
2018-05-31T19:48:43.549Z,27.80
2018-05-31T19:51:12.071Z,27.90
2018-05-31T19:53:43.409Z,27.90
2018-05-31T19:56:10.905Z,27.90
2018-05-31T19:58:44.020Z,27.90
2018-05-31T20:04:17.081Z,27.80
2018-05-31T20:06:45.322Z,27.80
2018-05-31T20:09:12.792Z,27.80
2018-05-31T20:11:41.214Z,27.80
2018-05-31T20:14:08.679Z,27.80
2018-05-31T20:16:36.275Z,27.80
2018-05-31T20:19:03.933Z,27.80
2018-05-31T20:21:31.491Z,27.90
2018-05-31T20:23:59.013Z,27.90
2018-05-31T20:26:26.766Z,27.80
2018-05-31T20:28:54.215Z,27.80
2018-05-31T20:31:21.931Z,27.80
2018-05-31T20:33:49.585Z,27.80
2018-05-31T20:36:17.833Z,27.80
2018-05-31T20:38:45.481Z,27.80
2018-05-31T20:41:13.077Z,27.80
2018-05-31T20:43:40.551Z,27.80
2018-05-31T20:46:08.143Z,27.80
2018-05-31T20:48:35.697Z,27.80
2018-05-31T20:51:03.163Z,27.80
2018-05-31T20:53:30.728Z,27.80
2018-05-31T20:55:58.183Z,27.80
2018-05-31T20:58:25.755Z,27.80
2018-05-31T21:00:53.213Z,27.80
2018-05-31T21:03:20.752Z,27.80
2018-05-31T21:05:48.325Z,27.90
2018-05-31T21:08:15.830Z,27.90
2018-05-31T21:10:43.437Z,27.90
2018-05-31T21:13:11.120Z,27.90
2018-05-31T21:15:38.734Z,27.90
2018-05-31T21:18:06.417Z,27.90
2018-05-31T21:20:34.043Z,27.90
2018-05-31T21:23:01.644Z,27.90
2018-05-31T21:25:31.068Z,27.90
2018-05-31T21:28:01.389Z,27.90
2018-05-31T21:30:28.840Z,27.90
2018-05-31T21:32:56.400Z,27.90
2018-05-31T21:35:24.824Z,27.90
2018-05-31T21:37:52.311Z,27.90
2018-05-31T21:40:19.768Z,27.90
2018-05-31T21:42:48.118Z,27.90
2018-05-31T21:45:15.530Z,27.90
2018-05-31T21:47:43.485Z,27.90
2018-05-31T21:50:10.975Z,27.90
2018-05-31T21:52:38.491Z,27.90
2018-05-31T21:55:05.972Z,27.90
2018-05-31T21:57:33.424Z,27.90
2018-05-31T22:00:01.060Z,27.90
2018-05-31T22:02:28.531Z,27.90
2018-05-31T22:04:56.032Z,27.90
2018-05-31T22:07:23.486Z,27.90
2018-05-31T22:09:50.961Z,27.90
2018-05-31T22:12:18.468Z,27.90
2018-05-31T22:14:45.919Z,27.90
2018-05-31T22:17:13.380Z,27.90
2018-05-31T22:19:41.156Z,27.90
2018-05-31T22:22:08.619Z,27.90
2018-05-31T22:24:36.248Z,27.90
2018-05-31T22:27:03.720Z,27.90
2018-05-31T22:29:31.175Z,27.80
2018-05-31T22:31:58.644Z,27.80
2018-05-31T22:34:26.115Z,27.80
2018-05-31T22:36:53.675Z,27.90
2018-05-31T22:39:21.304Z,27.80
2018-05-31T22:41:48.779Z,27.90
2018-05-31T22:44:16.353Z,27.90
2018-05-31T22:46:44.111Z,27.80
2018-05-31T22:49:11.656Z,27.80
2018-05-31T22:51:39.340Z,27.80
2018-05-31T22:54:07.112Z,27.80
2018-05-31T22:56:34.564Z,27.80
2018-05-31T22:59:02.209Z,27.80
2018-05-31T23:01:29.692Z,27.80
2018-05-31T23:03:57.171Z,27.80
2018-05-31T23:06:24.632Z,27.80
2018-05-31T23:08:52.164Z,27.90
2018-05-31T23:11:19.727Z,27.90
2018-05-31T23:13:47.310Z,27.80
2018-05-31T23:16:14.768Z,27.70
2018-05-31T23:18:42.303Z,27.60
2018-05-31T23:21:09.760Z,27.60
2018-05-31T23:23:37.392Z,27.60
2018-05-31T23:26:04.979Z,27.50
2018-05-31T23:28:32.619Z,27.50
2018-05-31T23:31:00.075Z,27.60
2018-05-31T23:33:27.667Z,27.60
2018-05-31T23:35:55.468Z,27.60
2018-05-31T23:38:23.114Z,27.70
2018-05-31T23:40:50.667Z,27.60
2018-05-31T23:43:18.124Z,27.60
2018-05-31T23:45:45.897Z,27.60
2018-05-31T23:48:13.652Z,27.60
2018-05-31T23:50:41.379Z,27.60
2018-05-31T23:53:08.836Z,27.50
2018-05-31T23:55:36.278Z,27.50
2018-05-31T23:58:03.790Z,27.40
